Airfield :
LOGIN :

Register | Disclaimer

   EN    FR    IT 

 










Legend :    VFR   Marginal VFR   IFR   Intensive IFR   Very Intensive IFR
Visi :
Ceiling :
>= 8 km
>= 3000ft
5 to 8 km
1000 to 3000 ft
1500m to 5 km
500 to 1000 ft
800 to 1500m
200 to 500 ft
< 800m
< 200 ft
Symbols :   Thunderstorms  Fog  Heavy snow  Heavy precipitations  Wind > 20 kt
SIGMETs :     Misc.  Thunderstorms  Icing  Turbulence  Mountain Waves  Volcanic Ashes






- Airport Elevation : 1548 ft


LKNA - Náměšť Air Base

CURRENT METAR :
  • 231500Z 08005KT 050V120 CAVOK 20/11 Q1015

EXPIRED METARs :
  • 231430Z 08008KT 050V110 CAVOK 19/12 Q1015 RMK BLACK
  • 231400Z 09007KT 060V120 CAVOK 20/11 Q1015 RMK BLACK
  • 231330Z 29005KT 210V360 CAVOK 21/08 Q1015 RMK BLACK
  • 231300Z 30004KT 240V360 CAVOK 21/07 Q1016 RMK BLACK
  • 231230Z 35007KT 310V030 CAVOK 20/11 Q1016 RMK BLACK
  • 231200Z 34008KT 280V030 9999 BKN045 SCT080 20/11 Q1016 RMK BLACK
  • 231130Z 30005KT 230V020 9999 SCT040 SCT080 BKN240 20/10 Q1016 RMK BLACK
  • 231100Z 32005KT 270V060 9999 SCT038 BKN240 20/11 Q1016 RMK BLACK
  • 231030Z 34005KT 300V020 9999 SCT034 BKN240 19/10 Q1016 RMK BLACK

TAF TAF LKNA
Valid from the 23 at 12:00 until the 24 at 12:00 UTC


231100Z 2312/2412 04005KT CAVOK
TEMPO 2312/2319 35006KT 9999 SHRA SCT025 BKN050
TEMPO 2312/2317 33010KT 8000 SHRA BKN030TCU
BECMG 2405/2407 11006KT 9999 BKN025
TEMPO 2406/2412 14010KT 4000 SHRA BKN015TCU
PROB40
TEMPO 2408/2412 14014KT 3000 TSRA BKN010CB



MET'MAP, your aeronautical weather chart ! - Copyright ORBIFLY December 2007 - Disclaimer

ORBIFLY MET'MAP TEAM :

Programming & Development : Alexandra Zaïnal
Original concept : Baudouin d'Aumeries
Technical & hardware support : Manuel Goepfert
Assistance : Marc-Olivier Méhu




SOURCES & CREDITS :

   NOAA